Time;durP1;ratioP1;P1;durP2;ratioP2;P2;SDS_P1;SDS_P2;PMS_P1;PMS_P2;Temp;Humidity;BMP_temperature;BMP_pressure;BME280_temperature;BME280_humidity;BME280_pressure;Samples;Min_cycle;Max_cycle;Signal;HPM_P1;HPM_P2
2021/09/06 00:02:06;;;;;;;8.80;5.00;;;21.30;99.90;;;;;;4953121;28;20051;-90
2021/09/06 00:04:35;;;;;;;6.90;4.60;;;21.30;99.90;;;;;;4952589;28;20114;-91
2021/09/06 00:07:01;;;;;;;6.95;4.63;;;21.30;99.90;;;;;;4952777;28;20024;-91
2021/09/06 00:09:27;;;;;;;5.20;4.18;;;21.20;99.90;;;;;;4935521;28;20028;-93
2021/09/06 00:11:53;;;;;;;5.57;4.60;;;21.20;99.90;;;;;;4957792;28;20488;-90
2021/09/06 00:14:19;;;;;;;9.20;4.50;;;21.20;99.90;;;;;;4952426;29;20022;-91
2021/09/06 00:16:44;;;;;;;8.02;5.10;;;21.20;99.90;;;;;;4944200;28;20122;-90
2021/09/06 00:19:10;;;;;;;7.32;4.43;;;21.10;99.90;;;;;;4947066;29;20031;-91
2021/09/06 00:21:36;;;;;;;5.43;4.13;;;21.10;99.90;;;;;;4951460;29;20393;-91
2021/09/06 00:24:01;;;;;;;5.13;3.78;;;21.10;99.90;;;;;;4951396;28;20077;-91
2021/09/06 00:26:28;;;;;;;4.55;4.10;;;21.10;99.90;;;;;;4951264;28;20086;-90
2021/09/06 00:28:55;;;;;;;10.95;4.40;;;21.10;99.90;;;;;;4951368;29;20023;-90
2021/09/06 00:31:20;;;;;;;6.78;4.47;;;21.10;99.90;;;;;;4952410;28;20063;-91
2021/09/06 00:33:46;;;;;;;7.07;4.53;;;21.00;99.90;;;;;;4952779;28;20114;-91
2021/09/06 00:36:12;;;;;;;6.85;4.43;;;21.00;99.90;;;;;;4951385;29;20487;-90
2021/09/06 00:38:38;;;;;;;7.32;5.05;;;21.00;99.90;;;;;;4945611;29;20019;-92
2021/09/06 00:41:04;;;;;;;5.32;4.53;;;21.00;99.90;;;;;;4959671;28;20042;-92
2021/09/06 00:43:30;;;;;;;6.50;4.82;;;20.90;99.90;;;;;;4951043;28;20015;-91
2021/09/06 00:45:56;;;;;;;5.78;5.15;;;20.90;99.90;;;;;;4952185;28;20067;-91
2021/09/06 00:48:25;;;;;;;5.40;4.90;;;20.90;99.90;;;;;;4952367;28;20031;-91
2021/09/06 00:50:51;;;;;;;5.03;4.40;;;20.90;99.90;;;;;;4951164;29;20109;-91
2021/09/06 00:53:17;;;;;;;8.48;4.40;;;20.90;99.90;;;;;;4935936;28;20079;-90
2021/09/06 00:55:43;;;;;;;5.35;4.63;;;20.80;99.90;;;;;;4931716;29;20492;-91
2021/09/06 00:58:10;;;;;;;7.05;4.97;;;20.80;99.90;;;;;;4947984;28;20047;-91
2021/09/06 01:00:36;;;;;;;5.50;4.82;;;20.80;99.90;;;;;;4931515;29;20115;-91
2021/09/06 01:03:02;;;;;;;5.20;4.55;;;20.70;99.90;;;;;;4947489;28;20389;-90
2021/09/06 01:05:29;;;;;;;5.20;4.70;;;20.70;99.90;;;;;;4931610;29;20071;-90
2021/09/06 01:07:56;;;;;;;8.65;4.90;;;20.70;99.90;;;;;;4933138;29;20493;-90
2021/09/06 01:10:22;;;;;;;6.40;4.90;;;20.70;99.90;;;;;;4932784;29;20042;-90
2021/09/06 01:12:48;;;;;;;6.47;4.53;;;20.60;99.90;;;;;;4933296;29;20107;-92
2021/09/06 01:15:13;;;;;;;7.97;4.80;;;20.60;99.90;;;;;;4932706;29;20429;-90
2021/09/06 01:17:39;;;;;;;5.97;4.93;;;20.60;99.90;;;;;;4931916;29;20036;-90
2021/09/06 01:20:07;;;;;;;6.72;4.25;;;20.60;99.90;;;;;;4932952;29;20032;-91
2021/09/06 01:22:32;;;;;;;6.38;4.80;;;20.50;99.90;;;;;;4928556;29;20115;-90
2021/09/06 01:24:58;;;;;;;7.40;4.25;;;20.50;99.90;;;;;;4926339;29;20572;-92
2021/09/06 01:27:24;;;;;;;5.10;4.53;;;20.50;99.90;;;;;;4935077;29;20083;-90
2021/09/06 01:29:51;;;;;;;7.72;4.88;;;20.50;99.90;;;;;;4936635;29;20067;-90
2021/09/06 01:32:17;;;;;;;5.68;5.15;;;20.50;99.90;;;;;;4936396;29;20544;-90
2021/09/06 01:34:42;;;;;;;8.40;5.43;;;20.50;99.90;;;;;;4936598;29;20031;-91
2021/09/06 01:37:08;;;;;;;7.28;5.30;;;20.50;99.90;;;;;;4935111;29;20119;-91
2021/09/06 01:39:34;;;;;;;8.63;5.00;;;20.50;99.90;;;;;;4935088;29;20385;-92
2021/09/06 01:42:00;;;;;;;7.88;5.65;;;20.40;99.90;;;;;;4948174;28;20032;-91
2021/09/06 01:44:26;;;;;;;7.78;5.45;;;20.50;99.90;;;;;;4932907;29;20142;-90
2021/09/06 01:46:51;;;;;;;7.95;5.45;;;20.50;99.90;;;;;;4935045;29;20159;-91
2021/09/06 01:49:17;;;;;;;6.20;4.97;;;20.50;99.90;;;;;;4935107;29;20392;-90
2021/09/06 01:51:43;;;;;;;5.93;5.18;;;20.50;99.90;;;;;;4938947;29;20016;-90
2021/09/06 01:54:09;;;;;;;8.90;4.53;;;20.50;99.90;;;;;;4937627;28;20413;-93
2021/09/06 01:56:38;;;;;;;7.13;5.22;;;20.50;99.90;;;;;;4950824;29;20515;-91
2021/09/06 01:59:04;;;;;;;6.13;5.10;;;20.50;99.90;;;;;;4955133;28;20055;-91
2021/09/06 02:01:30;;;;;;;6.40;4.90;;;20.50;99.90;;;;;;4950521;29;20030;-90
2021/09/06 02:03:55;;;;;;;5.70;4.88;;;20.50;99.90;;;;;;4944774;29;20027;-90
2021/09/06 02:06:21;;;;;;;4.55;4.10;;;20.40;99.90;;;;;;4955057;28;20102;-91
2021/09/06 02:08:47;;;;;;;5.45;4.82;;;20.40;99.90;;;;;;4947305;29;20058;-92
2021/09/06 02:11:14;;;;;;;6.78;4.72;;;20.40;99.90;;;;;;4936207;29;20468;-91
2021/09/06 02:13:39;;;;;;;6.40;4.50;;;20.40;99.90;;;;;;4955287;28;20031;-91
2021/09/06 02:16:05;;;;;;;6.63;4.70;;;20.30;99.90;;;;;;4953543;29;20406;-91
2021/09/06 02:18:31;;;;;;;7.72;5.28;;;20.30;99.90;;;;;;4955002;28;20109;-91
2021/09/06 02:20:57;;;;;;;5.18;4.47;;;20.20;99.90;;;;;;4954804;28;20487;-91
2021/09/06 02:23:24;;;;;;;4.88;4.05;;;20.30;99.90;;;;;;4954689;28;20086;-92
2021/09/06 02:25:49;;;;;;;4.95;4.40;;;20.20;99.90;;;;;;4948530;28;20520;-90
2021/09/06 02:28:15;;;;;;;6.07;5.00;;;20.20;99.90;;;;;;4962956;28;20031;-91
2021/09/06 02:30:41;;;;;;;6.80;4.90;;;20.20;99.90;;;;;;4954524;28;20027;-90
2021/09/06 02:33:06;;;;;;;6.85;4.95;;;20.20;99.90;;;;;;4943043;28;20028;-91
2021/09/06 02:35:32;;;;;;;6.70;5.25;;;20.20;99.90;;;;;;4950678;28;20031;-90
2021/09/06 02:37:58;;;;;;;7.25;5.13;;;20.20;99.90;;;;;;4953344;29;20023;-91
2021/09/06 02:40:24;;;;;;;7.55;5.00;;;20.20;99.90;;;;;;4954484;28;20020;-91
2021/09/06 02:42:50;;;;;;;6.75;5.18;;;20.20;99.90;;;;;;4941093;28;20441;-91
2021/09/06 02:45:16;;;;;;;7.53;5.70;;;20.10;99.90;;;;;;4928489;29;20119;-91
2021/09/06 02:47:46;;;;;;;5.85;4.68;;;20.10;99.90;;;;;;4938120;28;21424;-91
2021/09/06 02:50:12;;;;;;;5.97;4.95;;;20.10;99.90;;;;;;4949616;28;20078;-91
2021/09/06 02:52:37;;;;;;;7.88;4.80;;;20.10;99.90;;;;;;4933663;29;20028;-91
2021/09/06 02:55:04;;;;;;;5.30;4.63;;;20.10;99.90;;;;;;4949790;28;20031;-93
2021/09/06 02:57:29;;;;;;;6.13;5.03;;;20.10;99.90;;;;;;4949732;28;20067;-90
2021/09/06 02:59:55;;;;;;;5.20;4.70;;;20.00;99.90;;;;;;4935042;29;20027;-91
2021/09/06 03:02:21;;;;;;;6.18;4.70;;;20.00;99.90;;;;;;4949210;28;20150;-91
2021/09/06 03:04:47;;;;;;;5.38;4.88;;;20.10;99.90;;;;;;4934913;29;20103;-91
2021/09/06 03:07:13;;;;;;;6.60;5.18;;;20.10;99.90;;;;;;4934621;29;20047;-91
2021/09/06 03:09:39;;;;;;;7.05;5.13;;;20.10;99.90;;;;;;4949379;28;20032;-90
2021/09/06 03:12:05;;;;;;;5.60;5.00;;;20.10;99.90;;;;;;4934610;29;20031;-89
2021/09/06 03:14:30;;;;;;;5.75;5.25;;;20.00;99.90;;;;;;4934681;29;20062;-90
2021/09/06 03:16:56;;;;;;;5.78;5.03;;;20.00;99.90;;;;;;4944186;29;20489;-91
2021/09/06 03:19:22;;;;;;;5.88;5.28;;;20.00;99.90;;;;;;4936744;28;20603;-91
2021/09/06 03:21:47;;;;;;;6.38;5.25;;;20.00;99.90;;;;;;4934544;29;20028;-91
2021/09/06 03:24:13;;;;;;;6.18;5.30;;;19.90;99.90;;;;;;4948985;28;20560;-91
2021/09/06 03:26:39;;;;;;;5.43;4.85;;;19.90;99.90;;;;;;4934376;29;20384;-91
2021/09/06 03:29:05;;;;;;;7.88;5.68;;;19.90;99.90;;;;;;4934206;29;20099;-90
2021/09/06 03:31:32;;;;;;;5.68;5.13;;;19.90;99.90;;;;;;4949125;28;20024;-90
2021/09/06 03:34:01;;;;;;;6.10;5.07;;;19.90;99.90;;;;;;4948927;28;20541;-90
2021/09/06 03:36:27;;;;;;;7.78;5.60;;;19.90;99.90;;;;;;4948812;28;20508;-90
2021/09/06 03:38:55;;;;;;;7.30;5.47;;;19.90;99.90;;;;;;4947731;28;20389;-90
2021/09/06 03:41:22;;;;;;;6.22;5.53;;;19.90;99.90;;;;;;4932671;29;20556;-91
2021/09/06 03:43:48;;;;;;;6.03;5.35;;;19.90;99.90;;;;;;4934132;29;20079;-90
2021/09/06 03:46:14;;;;;;;5.85;5.20;;;19.90;99.90;;;;;;4932103;29;20035;-91
2021/09/06 03:48:40;;;;;;;9.23;5.00;;;19.90;99.90;;;;;;4946367;28;20024;-91
2021/09/06 03:51:05;;;;;;;6.35;5.75;;;19.90;99.90;;;;;;4934131;29;20480;-91
2021/09/06 03:53:31;;;;;;;5.95;5.25;;;19.90;99.90;;;;;;4932827;29;20038;-92
2021/09/06 03:55:57;;;;;;;7.88;5.60;;;19.90;99.90;;;;;;4945201;28;20484;-90
2021/09/06 03:58:22;;;;;;;6.68;4.95;;;19.90;99.90;;;;;;4925626;29;20071;-90
2021/09/06 04:00:48;;;;;;;7.78;5.57;;;19.90;99.90;;;;;;4932608;29;20035;-91
2021/09/06 04:03:14;;;;;;;6.38;5.68;;;19.90;99.90;;;;;;4933928;29;20043;-90
2021/09/06 04:05:40;;;;;;;7.57;5.10;;;19.90;99.90;;;;;;4932109;29;20042;-91
2021/09/06 04:08:06;;;;;;;5.72;5.10;;;19.90;99.90;;;;;;4932638;29;20023;-90
2021/09/06 04:10:32;;;;;;;6.05;5.22;;;19.90;99.90;;;;;;4933853;29;20028;-91
2021/09/06 04:12:59;;;;;;;6.35;5.75;;;19.90;99.90;;;;;;4933940;29;20020;-91
2021/09/06 04:15:25;;;;;;;5.55;5.03;;;19.80;99.90;;;;;;4933453;29;20035;-93
2021/09/06 04:17:51;;;;;;;6.63;5.38;;;19.80;99.90;;;;;;4932496;29;20020;-91
2021/09/06 04:20:16;;;;;;;7.75;5.45;;;19.80;99.90;;;;;;4933600;29;20031;-91
2021/09/06 04:22:42;;;;;;;6.40;5.00;;;19.80;99.90;;;;;;4948128;29;20160;-91
2021/09/06 04:25:09;;;;;;;6.95;5.32;;;19.90;99.90;;;;;;4932147;29;20035;-92
2021/09/06 04:27:36;;;;;;;6.05;5.43;;;19.90;99.90;;;;;;4945176;28;20028;-90
2021/09/06 04:30:04;;;;;;;5.68;5.10;;;19.90;99.90;;;;;;4933011;29;20024;-91
2021/09/06 04:32:30;;;;;;;8.82;5.40;;;19.90;99.90;;;;;;4932223;29;20497;-90
2021/09/06 04:34:56;;;;;;;6.45;5.57;;;19.90;99.90;;;;;;4945395;28;20094;-91
2021/09/06 04:37:24;;;;;;;6.18;5.57;;;19.80;99.90;;;;;;4923483;29;20433;-90
2021/09/06 04:39:50;;;;;;;6.40;5.05;;;19.80;99.90;;;;;;4932074;29;20485;-91
2021/09/06 04:42:16;;;;;;;5.90;5.30;;;19.80;99.90;;;;;;4932757;29;20020;-91
2021/09/06 04:44:42;;;;;;;6.88;6.18;;;19.80;99.90;;;;;;4944241;28;20058;-95
2021/09/06 04:47:07;;;;;;;6.75;5.28;;;19.80;99.90;;;;;;4937481;28;20031;-91
2021/09/06 04:49:33;;;;;;;5.82;5.22;;;19.80;99.90;;;;;;4929900;29;20524;-92
2021/09/06 04:51:59;;;;;;;7.20;5.25;;;19.80;99.90;;;;;;4941089;29;20016;-91
2021/09/06 04:54:24;;;;;;;6.88;5.78;;;19.80;99.90;;;;;;4932637;29;20031;-91
2021/09/06 04:56:50;;;;;;;6.55;5.72;;;19.80;99.90;;;;;;4925572;29;20115;-91
2021/09/06 04:59:16;;;;;;;8.80;5.65;;;19.80;99.90;;;;;;4945762;28;20046;-91
2021/09/06 05:01:42;;;;;;;7.25;5.72;;;19.80;99.90;;;;;;4935522;29;20019;-91
2021/09/06 05:04:08;;;;;;;6.72;6.03;;;19.70;99.90;;;;;;4940175;29;20197;-92
2021/09/06 05:06:33;;;;;;;7.68;5.70;;;19.70;99.90;;;;;;4944478;29;20020;-92
2021/09/06 05:08:59;;;;;;;7.25;6.20;;;19.70;99.90;;;;;;4944671;29;20029;-91
2021/09/06 05:11:25;;;;;;;6.75;5.95;;;19.60;99.90;;;;;;4947582;29;20027;-90
2021/09/06 05:13:51;;;;;;;7.38;6.07;;;19.60;99.90;;;;;;4946033;29;20307;-90
2021/09/06 05:16:17;;;;;;;8.30;5.63;;;19.50;99.90;;;;;;4943655;29;20031;-92
2021/09/06 05:18:44;;;;;;;8.07;5.97;;;19.50;99.90;;;;;;4939215;29;20026;-91
2021/09/06 05:21:11;;;;;;;7.72;6.38;;;19.50;99.90;;;;;;4949856;29;20019;-92
2021/09/06 05:23:37;;;;;;;7.97;5.80;;;19.50;99.90;;;;;;4965612;28;20038;-93
2021/09/06 05:26:02;;;;;;;7.63;5.38;;;19.50;99.90;;;;;;4951312;29;20035;-92
2021/09/06 05:28:28;;;;;;;9.32;5.93;;;19.50;99.90;;;;;;4966588;28;20254;-95
2021/09/06 05:30:54;;;;;;;7.88;6.03;;;19.40;99.90;;;;;;4964607;29;20030;-92
2021/09/06 05:33:20;;;;;;;5.90;5.32;;;19.40;99.90;;;;;;4964727;29;20038;-92
2021/09/06 05:35:45;;;;;;;6.80;6.10;;;19.40;99.90;;;;;;4965586;29;20015;-92
2021/09/06 05:38:11;;;;;;;7.57;5.70;;;19.40;99.90;;;;;;4964772;29;20023;-93
2021/09/06 05:40:37;;;;;;;10.55;5.93;;;19.40;99.90;;;;;;4964731;29;20027;-92
2021/09/06 05:43:03;;;;;;;7.88;6.43;;;19.40;99.90;;;;;;4964572;28;20372;-92
2021/09/06 05:45:29;;;;;;;6.75;6.05;;;19.40;99.90;;;;;;4964658;29;20053;-90
2021/09/06 05:47:55;;;;;;;8.95;6.13;;;19.40;99.90;;;;;;4939461;28;20023;-89
2021/09/06 05:50:20;;;;;;;8.93;6.38;;;19.40;99.90;;;;;;4935337;29;20051;-90
2021/09/06 05:52:46;;;;;;;8.27;7.00;;;19.40;99.90;;;;;;4933078;29;20464;-89
2021/09/06 05:55:13;;;;;;;9.52;6.40;;;19.40;99.90;;;;;;4934052;29;20024;-89
2021/09/06 05:57:39;;;;;;;10.40;6.82;;;19.40;99.90;;;;;;4935633;29;20063;-90
2021/09/06 06:00:07;;;;;;;7.15;6.45;;;19.40;99.90;;;;;;4935418;29;20031;-90
2021/09/06 06:02:33;;;;;;;10.57;6.97;;;19.40;99.90;;;;;;4935354;28;20134;-89
2021/09/06 06:04:59;;;;;;;10.10;6.45;;;19.50;99.90;;;;;;4935303;29;20043;-89
2021/09/06 06:07:24;;;;;;;8.07;6.07;;;19.60;99.90;;;;;;4934088;29;20046;-89
2021/09/06 06:09:52;;;;;;;8.73;7.03;;;19.60;99.90;;;;;;4933035;29;20042;-89
2021/09/06 06:12:17;;;;;;;8.57;6.68;;;19.70;99.90;;;;;;4935232;29;20078;-90
2021/09/06 06:14:43;;;;;;;6.93;6.22;;;19.80;99.90;;;;;;4934824;29;20027;-90
2021/09/06 06:17:09;;;;;;;9.23;6.22;;;19.80;99.90;;;;;;4935080;29;20067;-90
2021/09/06 06:19:35;;;;;;;7.88;6.38;;;19.90;99.90;;;;;;4935172;29;20079;-90
2021/09/06 06:22:01;;;;;;;9.98;7.03;;;19.90;99.90;;;;;;4933699;29;20020;-89
2021/09/06 06:24:26;;;;;;;8.52;5.93;;;20.00;99.90;;;;;;4934755;29;20063;-90
2021/09/06 06:26:52;;;;;;;9.43;6.13;;;20.10;99.90;;;;;;4933365;29;20110;-90
2021/09/06 06:29:18;;;;;;;7.07;6.13;;;20.10;99.90;;;;;;4934738;29;20056;-90
2021/09/06 06:31:44;;;;;;;7.05;6.00;;;20.10;99.90;;;;;;4934811;29;20492;-90
2021/09/06 06:34:09;;;;;;;7.30;6.18;;;20.20;99.90;;;;;;4933543;29;20321;-90
2021/09/06 06:36:35;;;;;;;8.18;5.72;;;20.20;99.90;;;;;;4933574;29;20031;-90
2021/09/06 06:39:01;;;;;;;8.05;5.63;;;20.30;99.90;;;;;;4933334;29;20027;-90
2021/09/06 06:41:26;;;;;;;6.95;5.53;;;20.30;99.90;;;;;;4933564;29;20028;-90
2021/09/06 06:43:52;;;;;;;7.18;5.60;;;20.40;99.90;;;;;;4934013;29;20543;-90
2021/09/06 06:46:18;;;;;;;8.70;5.85;;;20.40;99.90;;;;;;4934250;29;20484;-90
2021/09/06 06:48:43;;;;;;;8.25;5.32;;;20.50;99.90;;;;;;4934589;29;20035;-90
2021/09/06 06:51:09;;;;;;;10.05;5.65;;;20.50;99.90;;;;;;4934718;29;20075;-90
2021/09/06 06:53:36;;;;;;;10.05;5.75;;;20.60;99.90;;;;;;4935168;29;20496;-90
2021/09/06 06:56:03;;;;;;;9.27;4.80;;;20.70;99.90;;;;;;4933708;29;20484;-89
2021/09/06 06:58:32;;;;;;;8.30;5.28;;;20.80;99.90;;;;;;4934655;29;20027;-90
2021/09/06 07:00:57;;;;;;;7.07;5.55;;;20.90;99.90;;;;;;4934978;29;20024;-90
2021/09/06 07:03:24;;;;;;;7.22;5.30;;;21.00;99.90;;;;;;4935621;29;20067;-90
2021/09/06 07:05:49;;;;;;;8.85;5.15;;;21.00;99.90;;;;;;4934640;29;20058;-90
2021/09/06 07:08:15;;;;;;;6.55;5.30;;;21.10;99.90;;;;;;4935254;29;20024;-90
2021/09/06 07:10:41;;;;;;;6.53;5.28;;;21.20;99.90;;;;;;4946185;28;20115;-90
2021/09/06 07:13:06;;;;;;;8.95;5.45;;;21.20;99.90;;;;;;4946080;29;20024;-90
2021/09/06 07:15:32;;;;;;;6.72;5.20;;;21.30;99.90;;;;;;4949165;29;20298;-90
2021/09/06 07:18:01;;;;;;;7.18;4.80;;;21.40;99.90;;;;;;4933247;29;20063;-90
2021/09/06 07:20:28;;;;;;;7.75;5.20;;;21.50;99.90;;;;;;4935202;29;20480;-90
2021/09/06 07:22:54;;;;;;;6.20;5.05;;;21.50;99.90;;;;;;4934487;29;20027;-90
2021/09/06 07:25:21;;;;;;;5.45;4.50;;;21.60;99.90;;;;;;4945096;28;20052;-90
2021/09/06 07:27:47;;;;;;;7.18;4.47;;;21.70;99.90;;;;;;4926085;29;20031;-90
2021/09/06 07:30:13;;;;;;;5.90;5.00;;;21.70;99.90;;;;;;4934939;29;20095;-90
2021/09/06 07:32:39;;;;;;;5.63;4.97;;;21.80;99.90;;;;;;4935117;29;20107;-90
2021/09/06 07:35:05;;;;;;;8.05;5.07;;;21.90;99.90;;;;;;4946375;29;20027;-90
2021/09/06 07:37:31;;;;;;;5.65;5.05;;;21.90;99.90;;;;;;4952006;29;20033;-90
2021/09/06 07:39:57;;;;;;;8.68;5.10;;;22.00;99.90;;;;;;4953830;28;20098;-90
2021/09/06 07:42:24;;;;;;;8.10;5.00;;;22.00;99.90;;;;;;4953725;28;20487;-90
2021/09/06 07:44:52;;;;;;;10.45;5.30;;;22.10;99.90;;;;;;4953720;28;20294;-90
2021/09/06 07:47:18;;;;;;;12.73;5.72;;;22.20;99.90;;;;;;4940248;28;20027;-90
2021/09/06 07:49:45;;;;;;;9.50;4.80;;;22.30;99.90;;;;;;4952009;28;20027;-90
2021/09/06 07:52:11;;;;;;;8.65;5.57;;;22.40;99.90;;;;;;4968271;28;20037;-90
2021/09/06 07:54:37;;;;;;;7.00;5.40;;;22.50;99.90;;;;;;4953485;28;20027;-91
2021/09/06 07:57:03;;;;;;;6.95;5.43;;;22.60;99.90;;;;;;4953898;28;20031;-89
2021/09/06 07:59:29;;;;;;;8.43;5.25;;;22.70;99.90;;;;;;4953459;28;20023;-90
2021/09/06 08:01:55;;;;;;;7.57;4.93;;;22.80;99.90;;;;;;4952805;29;20122;-90
2021/09/06 08:04:21;;;;;;;7.35;4.45;;;22.90;99.90;;;;;;4948293;28;20032;-90
2021/09/06 08:06:46;;;;;;;9.82;4.60;;;22.90;99.90;;;;;;4944476;29;20027;-91
2021/09/06 08:09:13;;;;;;;7.43;4.70;;;23.00;99.90;;;;;;4952209;29;20445;-91
2021/09/06 08:11:39;;;;;;;4.47;4.07;;;23.10;99.90;;;;;;4942116;29;20123;-90
2021/09/06 08:14:05;;;;;;;6.80;4.45;;;23.20;99.90;;;;;;4949392;29;20036;-92
2021/09/06 08:16:32;;;;;;;6.80;3.83;;;23.40;99.90;;;;;;4920770;29;20052;-90
2021/09/06 08:18:58;;;;;;;6.28;4.03;;;23.40;99.90;;;;;;4934032;29;20024;-91
2021/09/06 08:21:24;;;;;;;5.63;3.45;;;23.50;99.90;;;;;;4933573;29;20224;-90
2021/09/06 08:23:50;;;;;;;13.95;4.38;;;23.70;99.90;;;;;;4934948;29;20111;-91
2021/09/06 08:26:16;;;;;;;8.52;4.55;;;23.70;99.90;;;;;;4934683;29;20079;-90
2021/09/06 08:28:42;;;;;;;6.68;3.47;;;23.90;99.90;;;;;;4934522;29;20441;-91
2021/09/06 08:31:08;;;;;;;5.20;3.78;;;24.00;99.90;;;;;;4962045;28;20015;-90
2021/09/06 08:33:33;;;;;;;5.57;3.78;;;24.10;99.90;;;;;;4931474;29;20244;-91
2021/09/06 08:35:59;;;;;;;3.65;3.17;;;24.20;99.90;;;;;;4933824;29;20055;-91
2021/09/06 08:38:25;;;;;;;5.30;2.88;;;24.40;99.90;;;;;;4934227;29;20396;-90
2021/09/06 08:40:51;;;;;;;8.23;3.20;;;24.50;99.90;;;;;;4948607;29;20109;-91
2021/09/06 08:43:17;;;;;;;4.78;2.65;;;24.60;99.90;;;;;;4966741;28;20023;-90
2021/09/06 08:45:42;;;;;;;7.30;3.15;;;24.70;99.90;;;;;;4942102;28;20571;-90
2021/09/06 08:48:08;;;;;;;5.68;2.92;;;24.80;99.90;;;;;;4932911;29;20035;-91
2021/09/06 08:50:35;;;;;;;4.60;2.80;;;24.90;99.90;;;;;;4933979;29;20027;-91
2021/09/06 08:53:06;;;;;;;11.48;3.65;;;24.90;99.90;;;;;;4949031;28;20416;-91
2021/09/06 08:55:32;;;;;;;3.55;2.83;;;25.10;99.90;;;;;;4948751;29;20180;-91
2021/09/06 08:57:58;;;;;;;5.18;3.80;;;25.20;99.90;;;;;;4946992;29;20075;-91
2021/09/06 09:00:29;;;;;;;7.13;3.35;;;25.20;99.90;;;;;;4952668;28;20031;-91
2021/09/06 09:02:55;;;;;;;3.83;3.03;;;25.30;99.90;;;;;;4952054;28;20047;-94
2021/09/06 09:05:20;;;;;;;5.53;2.90;;;25.40;99.90;;;;;;4953799;28;20104;-90
2021/09/06 09:07:46;;;;;;;5.18;2.65;;;25.50;99.90;;;;;;4951082;29;20404;-92
2021/09/06 09:10:24;;;;;;;8.13;3.10;;;25.60;99.90;;;;;;4951984;28;20476;-91
2021/09/06 09:12:49;;;;;;;4.00;3.10;;;25.70;99.90;;;;;;4952637;28;20062;-92
2021/09/06 09:15:15;;;;;;;6.55;3.03;;;25.80;99.90;;;;;;4950637;29;20066;-91
2021/09/06 09:17:54;;;;;;;4.88;2.70;;;25.90;99.90;;;;;;4952255;28;20032;-91
2021/09/06 09:20:19;;;;;;;6.38;3.13;;;26.00;99.90;;;;;;4937818;28;20102;-91
2021/09/06 09:22:46;;;;;;;7.43;3.25;;;26.20;99.90;;;;;;4933973;29;20496;-92
2021/09/06 09:25:12;;;;;;;4.68;3.38;;;26.30;99.90;;;;;;4956602;28;20067;-91
2021/09/06 09:27:40;;;;;;;5.03;3.10;;;26.40;99.90;;;;;;4954053;28;20032;-92
2021/09/06 09:30:23;;;;;;;5.70;3.15;;;26.40;99.90;;;;;;4954223;28;20047;-91
2021/09/06 09:33:12;;;;;;;7.50;3.25;;;26.50;99.90;;;;;;4951417;28;20452;-91
2021/09/06 09:35:39;;;;;;;4.80;2.60;;;26.70;99.90;;;;;;4941324;29;20130;-91
2021/09/06 09:38:10;;;;;;;9.38;2.97;;;26.80;99.90;;;;;;4949548;29;20039;-91
2021/09/06 09:40:39;;;;;;;6.13;2.72;;;26.90;99.90;;;;;;4954222;28;20020;-91
2021/09/06 09:43:05;;;;;;;8.88;2.85;;;27.10;99.90;;;;;;4950820;28;20062;-91
2021/09/06 09:45:31;;;;;;;4.72;2.70;;;27.10;99.90;;;;;;4952939;28;20043;-91
2021/09/06 09:47:59;;;;;;;3.83;2.72;;;27.20;99.60;;;;;;4954731;28;20016;-91
2021/09/06 09:50:27;;;;;;;8.30;3.00;;;27.40;99.50;;;;;;4954995;28;20032;-91
2021/09/06 09:52:55;;;;;;;5.80;2.78;;;27.40;98.90;;;;;;4956512;28;20015;-91
2021/09/06 09:55:23;;;;;;;7.18;2.65;;;27.50;98.90;;;;;;4950020;28;20408;-91
2021/09/06 09:57:49;;;;;;;5.07;2.88;;;27.60;98.50;;;;;;4946221;29;20030;-96
2021/09/06 10:00:16;;;;;;;5.97;2.75;;;27.70;98.20;;;;;;4954152;29;20028;-92
2021/09/06 10:02:49;;;;;;;5.45;2.90;;;27.70;98.10;;;;;;4946799;28;20052;-91
2021/09/06 10:05:17;;;;;;;5.20;2.85;;;27.90;97.40;;;;;;4950341;29;20110;-92
2021/09/06 10:07:46;;;;;;;4.50;2.88;;;28.00;96.90;;;;;;4947789;28;20027;-91
2021/09/06 10:10:18;;;;;;;4.53;2.38;;;28.10;96.50;;;;;;4948501;29;20047;-91
2021/09/06 10:13:00;;;;;;;5.65;2.60;;;28.20;96.00;;;;;;4956662;28;20031;-92
2021/09/06 10:15:26;;;;;;;4.32;2.95;;;28.30;95.70;;;;;;4950160;29;20515;-91
2021/09/06 10:17:52;;;;;;;7.32;2.85;;;28.40;95.70;;;;;;4957241;28;20064;-92
2021/09/06 10:20:23;;;;;;;5.15;2.75;;;28.50;95.10;;;;;;4949155;28;20047;-90
2021/09/06 10:23:02;;;;;;;4.50;2.65;;;28.60;95.10;;;;;;4952744;29;20050;-91
2021/09/06 10:25:30;;;;;;;5.93;2.60;;;28.70;94.30;;;;;;4956387;28;20031;-92
2021/09/06 10:28:02;;;;;;;4.78;2.90;;;28.80;94.00;;;;;;4955300;28;20039;-91
2021/09/06 10:30:50;;;;;;;5.80;2.78;;;29.00;93.40;;;;;;4938038;28;20039;-96
2021/09/06 10:33:32;;;;;;;4.35;2.50;;;29.10;92.60;;;;;;4935785;29;20052;-91
2021/09/06 10:36:11;;;;;;;3.63;2.65;;;29.10;92.80;;;;;;4931425;29;20106;-90
2021/09/06 10:38:38;;;;;;;4.70;2.53;;;29.20;92.20;;;;;;4953239;29;20503;-91
2021/09/06 10:41:16;;;;;;;6.22;2.65;;;29.20;92.00;;;;;;4968951;28;20120;-92
2021/09/06 10:43:52;;;;;;;6.43;2.80;;;29.30;91.80;;;;;;4935166;29;20108;-91
2021/09/06 10:46:21;;;;;;;6.97;2.67;;;29.40;91.80;;;;;;4930192;29;20086;-90
2021/09/06 10:48:47;;;;;;;6.35;2.70;;;29.60;90.90;;;;;;4934254;29;20461;-90
2021/09/06 10:51:16;;;;;;;9.45;3.22;;;29.60;90.40;;;;;;4946830;29;20043;-90
2021/09/06 10:53:42;;;;;;;3.70;2.53;;;29.60;90.50;;;;;;4953148;28;20019;-90
2021/09/06 10:56:07;;;;;;;9.05;3.03;;;29.60;90.30;;;;;;4940888;28;20045;-90
2021/09/06 10:58:33;;;;;;;8.73;2.60;;;29.70;90.10;;;;;;4953503;28;20110;-90
2021/09/06 11:01:02;;;;;;;5.55;2.45;;;29.80;90.10;;;;;;4953563;28;20031;-90
2021/09/06 11:03:38;;;;;;;4.07;2.55;;;29.80;90.30;;;;;;4952368;28;20059;-91
2021/09/06 11:06:05;;;;;;;4.50;2.70;;;29.90;90.10;;;;;;4954303;28;20030;-92
2021/09/06 11:08:35;;;;;;;4.38;2.50;;;30.00;89.70;;;;;;4953726;28;20055;-90
2021/09/06 11:11:07;;;;;;;6.70;2.95;;;29.90;89.70;;;;;;4953745;28;20031;-92
2021/09/06 11:13:37;;;;;;;3.38;2.47;;;30.10;88.60;;;;;;4941973;29;20040;-90
2021/09/06 11:16:08;;;;;;;2.97;2.17;;;30.10;87.80;;;;;;4935737;29;20020;-90
2021/09/06 11:18:38;;;;;;;3.33;2.20;;;30.20;88.20;;;;;;4933875;29;20036;-88
2021/09/06 11:21:04;;;;;;;3.22;2.08;;;30.40;88.50;;;;;;4922310;29;20024;-89
2021/09/06 11:23:40;;;;;;;5.65;2.50;;;30.50;86.80;;;;;;4933576;29;20054;-89
2021/09/06 11:26:07;;;;;;;3.85;2.50;;;30.70;84.30;;;;;;4952957;28;20031;-90
2021/09/06 11:28:33;;;;;;;3.40;2.05;;;30.80;83.00;;;;;;4954791;28;20412;-89
2021/09/06 11:30:59;;;;;;;2.90;1.90;;;30.90;82.30;;;;;;4945503;28;20035;-90
2021/09/06 11:33:27;;;;;;;2.88;1.88;;;31.00;81.80;;;;;;4935985;29;20030;-89
2021/09/06 11:35:54;;;;;;;4.57;2.20;;;31.10;78.80;;;;;;4958708;28;20263;-89
2021/09/06 11:38:19;;;;;;;3.20;1.90;;;31.10;79.00;;;;;;4943738;28;20114;-89
2021/09/06 11:40:55;;;;;;;4.38;2.08;;;31.10;78.20;;;;;;4951678;29;20051;-90
2021/09/06 11:43:26;;;;;;;3.40;1.98;;;31.20;77.70;;;;;;4955128;28;20031;-89
2021/09/06 11:46:02;;;;;;;3.53;1.90;;;31.30;78.00;;;;;;4955765;28;20535;-90
2021/09/06 11:48:40;;;;;;;4.55;1.90;;;31.40;76.10;;;;;;4952589;28;20019;-78
2021/09/06 11:51:07;;;;;;;5.07;2.30;;;31.50;76.10;;;;;;4952668;28;20324;-78
2021/09/06 11:53:32;;;;;;;4.25;2.15;;;31.50;76.60;;;;;;4953179;28;20023;-77
2021/09/06 11:55:58;;;;;;;3.15;2.00;;;31.40;77.60;;;;;;4956258;28;20167;-77
2021/09/06 11:58:26;;;;;;;3.25;1.90;;;31.50;77.20;;;;;;4962958;28;20027;-78
2021/09/06 12:00:53;;;;;;;2.78;2.05;;;31.50;74.90;;;;;;4962455;28;20026;-77
2021/09/06 12:03:26;;;;;;;3.03;2.03;;;31.60;75.30;;;;;;4955120;28;20054;-77
2021/09/06 12:06:02;;;;;;;4.80;2.10;;;31.60;75.00;;;;;;4952140;28;20035;-78
2021/09/06 12:08:28;;;;;;;4.15;2.03;;;31.70;74.80;;;;;;4953346;28;20035;-89
2021/09/06 12:11:09;;;;;;;4.13;1.95;;;31.80;73.30;;;;;;4956403;29;20031;-90
2021/09/06 12:13:36;;;;;;;5.93;1.83;;;31.90;72.10;;;;;;4938399;29;20031;-89
2021/09/06 12:16:05;;;;;;;4.35;2.13;;;32.00;71.50;;;;;;4933042;29;20067;-90
2021/09/06 12:18:36;;;;;;;3.42;1.95;;;32.10;73.80;;;;;;4935461;29;20528;-89
2021/09/06 12:21:17;;;;;;;4.50;1.80;;;32.20;73.20;;;;;;4939224;29;20473;-90
2021/09/06 12:23:44;;;;;;;2.35;1.70;;;32.30;70.90;;;;;;4942707;29;20023;-90
2021/09/06 12:26:11;;;;;;;3.95;2.00;;;32.50;70.20;;;;;;4935492;29;20054;-90
2021/09/06 12:28:56;;;;;;;4.10;2.00;;;32.60;70.30;;;;;;4934534;29;20533;-89
2021/09/06 12:31:23;;;;;;;3.25;1.90;;;32.50;69.60;;;;;;4947445;28;20046;-90
2021/09/06 12:33:49;;;;;;;5.35;1.98;;;32.60;70.60;;;;;;4957248;28;20028;-91
2021/09/06 12:36:16;;;;;;;6.03;2.00;;;32.70;70.10;;;;;;4953805;28;20023;-89
2021/09/06 12:38:43;;;;;;;5.05;2.00;;;32.70;71.10;;;;;;4950433;29;20435;-90
2021/09/06 12:41:09;;;;;;;3.15;2.05;;;32.80;70.40;;;;;;4950311;29;20027;-90
2021/09/06 12:43:34;;;;;;;3.75;1.70;;;33.00;67.70;;;;;;4946412;28;20067;-89
2021/09/06 12:46:00;;;;;;;2.35;1.60;;;33.10;67.00;;;;;;4932895;28;20111;-89